Time;durP1;ratioP1;P1;durP2;ratioP2;P2;SDS_P1;SDS_P2;PMS_P1;PMS_P2;Temp;Humidity;BMP_temperature;BMP_pressure;BME280_temperature;BME280_humidity;BME280_pressure;Samples;Min_cycle;Max_cycle;Signal;HPM_P1;HPM_P2
2021/11/17 05:32:35;;;;;;;11.80;6.40;;;5.90;99.90;;;;;;5321803;23;20470;-70
2021/11/17 05:35:37;;;;;;;10.10;6.17;;;5.80;99.90;;;;;;4969102;28;20830;-74
2021/11/17 05:38:33;;;;;;;11.70;7.10;;;5.80;99.90;;;;;;4941637;28;20418;-74
2021/11/17 05:41:18;;;;;;;9.40;5.60;;;5.80;99.90;;;;;;4971960;28;20430;-74
2021/11/17 05:44:00;;;;;;;9.17;5.87;;;5.80;99.90;;;;;;4970952;28;20396;-75
2021/11/17 05:46:46;;;;;;;9.33;6.03;;;5.80;99.90;;;;;;4972111;28;20396;-74
2021/11/17 05:49:24;;;;;;;10.63;6.97;;;5.80;99.90;;;;;;4970521;28;20415;-75
2021/11/17 05:52:12;;;;;;;9.97;6.60;;;5.80;99.90;;;;;;4972133;28;20441;-74
2021/11/17 05:55:21;;;;;;;9.07;6.30;;;5.80;99.90;;;;;;4971988;28;20427;-74
2021/11/17 05:57:53;;;;;;;10.10;6.80;;;5.90;99.90;;;;;;4972066;28;20392;-72
2021/11/17 06:00:35;;;;;;;13.07;7.60;;;5.90;99.90;;;;;;4971783;28;20412;-73
2021/11/17 06:03:10;;;;;;;11.80;6.07;;;5.90;99.90;;;;;;4970432;28;20805;-72
2021/11/17 06:05:35;;;;;;;12.50;7.73;;;5.80;99.90;;;;;;4971971;28;20390;-72
2021/11/17 06:08:00;;;;;;;17.20;5.80;;;5.80;99.90;;;;;;4974517;28;20510;-72
2021/11/17 06:10:33;;;;;;;11.67;6.57;;;5.80;99.90;;;;;;4975320;28;20705;-70
2021/11/17 06:12:59;;;;;;;12.63;7.33;;;5.80;99.90;;;;;;4975299;28;20180;-72
2021/11/17 06:15:25;;;;;;;10.73;6.77;;;5.80;99.90;;;;;;4975441;28;20465;-72
2021/11/17 06:17:53;;;;;;;12.23;6.90;;;5.90;99.90;;;;;;4975480;28;20476;-72
2021/11/17 06:20:20;;;;;;;18.17;8.57;;;5.80;99.90;;;;;;4975164;28;20414;-72
2021/11/17 06:22:49;;;;;;;13.10;7.00;;;5.80;99.90;;;;;;4974629;28;20454;-73
2021/11/17 06:25:16;;;;;;;15.13;6.80;;;5.80;99.90;;;;;;4973741;28;21292;-72
2021/11/17 06:27:46;;;;;;;10.60;5.53;;;5.80;99.90;;;;;;4975026;28;20819;-72
2021/11/17 06:30:15;;;;;;;12.57;7.37;;;5.70;99.90;;;;;;4974961;28;20422;-70
2021/11/17 06:32:40;;;;;;;10.00;6.33;;;5.70;99.90;;;;;;4974784;28;20533;-71
2021/11/17 06:35:07;;;;;;;14.13;6.50;;;5.70;99.90;;;;;;4975382;28;20426;-71
2021/11/17 06:37:32;;;;;;;8.50;5.73;;;5.80;99.90;;;;;;4976095;28;20305;-72
2021/11/17 06:40:00;;;;;;;9.77;6.07;;;5.80;99.90;;;;;;4975785;28;20467;-73
2021/11/17 06:42:30;;;;;;;10.70;5.80;;;5.80;99.90;;;;;;4975847;28;20226;-73
2021/11/17 06:44:55;;;;;;;12.27;4.90;;;5.80;99.90;;;;;;4975774;28;20423;-72
2021/11/17 06:47:21;;;;;;;9.50;6.40;;;5.80;99.90;;;;;;4975871;28;20396;-73
2021/11/17 06:49:47;;;;;;;11.23;6.70;;;5.80;99.90;;;;;;4975528;28;20206;-73
2021/11/17 06:52:13;;;;;;;13.03;6.63;;;5.80;99.90;;;;;;4975215;28;20448;-73
2021/11/17 06:54:39;;;;;;;12.70;6.27;;;5.90;99.90;;;;;;4975313;28;20190;-73
2021/11/17 06:57:05;;;;;;;9.30;5.80;;;5.80;99.90;;;;;;4975170;28;20483;-73
2021/11/17 06:59:31;;;;;;;13.30;6.30;;;5.80;99.90;;;;;;4974214;28;20914;-73
2021/11/17 07:02:04;;;;;;;11.47;6.43;;;5.80;99.90;;;;;;4975599;28;20476;-73
2021/11/17 07:04:29;;;;;;;14.17;7.07;;;5.80;99.90;;;;;;4975043;28;20176;-73
2021/11/17 07:06:55;;;;;;;13.03;6.20;;;5.80;99.90;;;;;;4975218;28;20384;-72
2021/11/17 07:09:20;;;;;;;12.00;7.23;;;5.80;99.90;;;;;;4974949;28;20207;-73
2021/11/17 07:11:46;;;;;;;12.30;6.07;;;5.90;99.90;;;;;;4974985;28;20696;-73
2021/11/17 07:14:12;;;;;;;12.27;6.37;;;5.90;99.90;;;;;;4974690;28;20174;-73
2021/11/17 07:16:40;;;;;;;11.07;5.40;;;5.90;99.90;;;;;;4975020;28;20254;-73
2021/11/17 07:19:09;;;;;;;10.27;6.83;;;5.90;99.90;;;;;;4973591;28;20432;-73
2021/11/17 07:21:34;;;;;;;10.20;5.30;;;5.90;99.90;;;;;;4974825;28;20950;-73
2021/11/17 07:24:01;;;;;;;10.97;5.63;;;5.90;99.90;;;;;;4974605;28;20418;-74
2021/11/17 07:26:27;;;;;;;8.20;4.90;;;5.90;99.90;;;;;;4975013;28;20170;-73
2021/11/17 07:28:53;;;;;;;12.37;6.10;;;5.90;99.90;;;;;;4975203;28;20484;-73
2021/11/17 07:31:18;;;;;;;10.60;6.27;;;6.00;99.90;;;;;;4974544;28;20245;-73
2021/11/17 07:33:44;;;;;;;11.27;5.63;;;6.00;99.90;;;;;;4974723;28;20501;-73
2021/11/17 07:36:10;;;;;;;8.87;5.80;;;5.90;99.90;;;;;;4974966;28;20177;-73
2021/11/17 07:38:36;;;;;;;8.00;5.90;;;5.90;99.90;;;;;;4974852;28;20175;-72
2021/11/17 07:41:02;;;;;;;10.23;4.87;;;6.00;99.90;;;;;;4974895;28;20447;-73
2021/11/17 07:43:28;;;;;;;13.40;5.33;;;5.90;99.90;;;;;;4974883;28;20415;-73
2021/11/17 07:45:55;;;;;;;8.93;5.87;;;5.90;99.90;;;;;;4974896;28;20180;-74
2021/11/17 07:48:25;;;;;;;9.47;6.10;;;5.90;99.90;;;;;;4974837;28;20449;-73
2021/11/17 07:50:52;;;;;;;9.90;6.50;;;6.00;99.90;;;;;;4974678;28;20464;-73
2021/11/17 07:53:20;;;;;;;16.30;5.40;;;6.00;99.90;;;;;;4974142;28;20417;-72
2021/11/17 07:55:49;;;;;;;11.30;5.33;;;6.00;99.90;;;;;;4974481;28;20422;-73
2021/11/17 07:58:16;;;;;;;7.83;5.00;;;6.00;99.90;;;;;;4974204;28;20432;-73
2021/11/17 08:00:47;;;;;;;8.77;4.70;;;6.00;99.90;;;;;;4974357;28;20439;-73
2021/11/17 08:03:13;;;;;;;5.50;4.77;;;6.10;99.90;;;;;;4974113;28;20934;-73
2021/11/17 08:05:40;;;;;;;7.00;4.70;;;6.10;99.90;;;;;;4974424;28;20497;-73
2021/11/17 08:08:06;;;;;;;10.20;5.37;;;6.10;99.90;;;;;;4974547;28;20920;-73
2021/11/17 08:10:34;;;;;;;9.93;4.30;;;6.10;99.90;;;;;;4974496;28;20891;-73
2021/11/17 08:13:00;;;;;;;10.33;5.13;;;6.20;99.90;;;;;;4974332;28;20387;-73
2021/11/17 08:15:26;;;;;;;7.20;5.00;;;6.20;99.90;;;;;;4974427;28;20414;-72
2021/11/17 08:17:52;;;;;;;5.30;3.50;;;6.10;99.90;;;;;;4974331;28;20916;-72
2021/11/17 08:20:18;;;;;;;10.80;5.17;;;6.20;99.90;;;;;;4973234;28;20437;-73
2021/11/17 08:22:47;;;;;;;7.50;4.80;;;6.20;99.90;;;;;;4974171;28;20194;-70
2021/11/17 08:25:15;;;;;;;5.83;4.03;;;6.20;99.90;;;;;;4974308;28;20423;-72
2021/11/17 08:27:41;;;;;;;7.30;4.00;;;6.20;99.90;;;;;;4974298;28;20506;-73
2021/11/17 08:30:10;;;;;;;6.70;4.03;;;6.20;99.90;;;;;;4973611;28;20499;-72
2021/11/17 08:32:37;;;;;;;3.77;3.27;;;6.20;99.90;;;;;;4973740;28;20494;-73
2021/11/17 08:35:05;;;;;;;5.00;3.30;;;6.10;99.90;;;;;;4973540;28;20418;-73
2021/11/17 08:37:32;;;;;;;3.63;3.00;;;6.00;99.90;;;;;;4973698;28;20417;-72
2021/11/17 08:39:59;;;;;;;4.03;2.53;;;6.00;99.90;;;;;;4973669;28;20454;-72
2021/11/17 08:42:25;;;;;;;4.70;3.33;;;5.90;99.90;;;;;;4973569;28;20904;-74
2021/11/17 08:44:51;;;;;;;4.97;3.10;;;5.80;99.90;;;;;;4973575;28;20431;-73
2021/11/17 08:47:18;;;;;;;6.43;2.97;;;5.80;99.90;;;;;;4973484;28;20266;-73
2021/11/17 08:49:45;;;;;;;3.83;3.27;;;5.80;99.90;;;;;;4973454;28;20397;-73
2021/11/17 08:52:11;;;;;;;3.97;3.13;;;5.80;99.90;;;;;;4973441;28;20460;-72
2021/11/17 08:54:38;;;;;;;3.47;3.03;;;5.70;99.90;;;;;;4973224;28;20537;-73
2021/11/17 08:57:04;;;;;;;5.63;2.93;;;5.70;99.90;;;;;;4973462;28;20772;-73
2021/11/17 08:59:31;;;;;;;3.60;3.27;;;5.70;99.90;;;;;;4973092;28;20424;-73
2021/11/17 09:01:59;;;;;;;3.60;2.70;;;5.60;99.90;;;;;;4971702;28;20257;-72
2021/11/17 09:04:25;;;;;;;2.97;2.10;;;5.60;99.90;;;;;;4972681;28;20437;-71
2021/11/17 09:06:51;;;;;;;4.40;2.67;;;5.60;99.90;;;;;;4972960;28;20509;-72
2021/11/17 09:09:18;;;;;;;2.90;2.40;;;5.60;99.90;;;;;;4972677;28;20176;-72
2021/11/17 09:11:44;;;;;;;5.10;3.17;;;5.60;99.90;;;;;;4972784;28;20471;-72
2021/11/17 09:14:10;;;;;;;3.03;2.77;;;5.50;99.90;;;;;;4972556;28;20414;-71
2021/11/17 09:16:36;;;;;;;3.20;2.47;;;5.60;99.90;;;;;;4973293;28;20178;-72
2021/11/17 09:19:03;;;;;;;8.10;2.53;;;5.50;99.90;;;;;;4972717;28;20403;-72
2021/11/17 09:21:33;;;;;;;3.77;2.57;;;5.50;99.90;;;;;;4972907;28;20444;-72
2021/11/17 09:24:04;;;;;;;2.90;2.57;;;5.50;99.90;;;;;;4972892;28;20954;-72
2021/11/17 09:26:30;;;;;;;3.27;2.97;;;5.50;99.90;;;;;;4972951;28;20397;-72
2021/11/17 09:28:57;;;;;;;4.73;3.27;;;5.50;99.90;;;;;;4972641;28;20884;-72
2021/11/17 09:31:25;;;;;;;6.73;2.50;;;5.60;99.90;;;;;;4972608;28;20499;-73
2021/11/17 09:33:51;;;;;;;3.63;2.83;;;5.60;99.90;;;;;;4972830;28;20413;-72
2021/11/17 09:36:19;;;;;;;4.40;3.13;;;5.70;99.90;;;;;;4972417;28;20519;-70
2021/11/17 09:38:50;;;;;;;4.83;2.67;;;5.70;99.90;;;;;;4968450;28;20416;-73
2021/11/17 09:41:19;;;;;;;3.53;2.60;;;5.70;99.90;;;;;;4969912;28;20573;-72
2021/11/17 09:43:49;;;;;;;2.83;1.90;;;5.70;99.90;;;;;;4974254;28;20457;-72
2021/11/17 09:46:19;;;;;;;6.70;2.10;;;5.80;99.90;;;;;;4976542;28;20474;-72
2021/11/17 09:48:47;;;;;;;2.23;2.03;;;5.90;99.90;;;;;;4975237;28;20965;-73
2021/11/17 09:51:18;;;;;;;4.20;1.97;;;5.90;99.90;;;;;;4978166;28;21016;-74
2021/11/17 09:53:58;;;;;;;5.20;3.03;;;5.90;99.90;;;;;;4975501;28;20421;-73
2021/11/17 09:56:46;;;;;;;3.77;3.47;;;6.00;99.90;;;;;;4976744;28;20943;-72
2021/11/17 09:59:22;;;;;;;5.70;2.83;;;6.10;99.90;;;;;;4975490;28;20862;-72
2021/11/17 10:02:12;;;;;;;2.63;2.30;;;6.10;99.90;;;;;;4975636;28;20438;-72
2021/11/17 10:04:51;;;;;;;3.37;3.07;;;6.10;99.90;;;;;;4975487;28;20903;-72
2021/11/17 10:08:21;;;;;;;2.93;2.70;;;6.20;99.90;;;;;;4975602;28;20443;-72
2021/11/17 10:13:57;;;;;;;2.33;2.13;;;6.30;99.90;;;;;;4975524;28;20467;-72
2021/11/17 10:16:23;;;;;;;2.97;2.77;;;6.40;99.90;;;;;;4975524;28;20454;-72
2021/11/17 10:18:52;;;;;;;3.53;3.23;;;6.50;99.90;;;;;;4974236;28;20422;-72
2021/11/17 10:21:26;;;;;;;3.90;2.53;;;6.50;99.90;;;;;;4971997;28;20449;-71
2021/11/17 10:23:57;;;;;;;2.43;2.23;;;6.60;99.90;;;;;;4975181;28;20454;-72
2021/11/17 10:26:24;;;;;;;3.60;3.30;;;6.50;99.90;;;;;;4975992;28;20518;-71
2021/11/17 10:28:59;;;;;;;2.87;2.37;;;6.50;99.90;;;;;;4976136;28;20420;-72
2021/11/17 10:31:31;;;;;;;1.90;1.80;;;6.50;99.90;;;;;;4975755;28;20469;-72
2021/11/17 10:34:22;;;;;;;1.47;1.37;;;6.50;99.90;;;;;;4975847;28;20413;-72
2021/11/17 10:36:57;;;;;;;1.67;1.57;;;6.40;99.90;;;;;;4976030;28;20399;-72
2021/11/17 10:39:37;;;;;;;2.23;1.63;;;6.40;99.90;;;;;;4976085;28;20405;-72
2021/11/17 10:42:18;;;;;;;1.47;1.37;;;6.30;99.90;;;;;;4975976;28;20463;-73
2021/11/17 10:44:43;;;;;;;1.20;1.10;;;6.40;99.90;;;;;;4975823;28;20855;-72
2021/11/17 10:47:20;;;;;;;3.13;1.47;;;6.40;99.90;;;;;;4976123;28;20496;-72
2021/11/17 10:49:51;;;;;;;0.73;0.73;;;6.40;99.90;;;;;;4976038;28;20179;-72
2021/11/17 10:52:31;;;;;;;1.50;1.20;;;6.60;99.90;;;;;;4975502;28;20469;-72
2021/11/17 10:55:00;;;;;;;1.50;1.30;;;6.60;99.90;;;;;;4975715;28;20820;-72
2021/11/17 10:57:28;;;;;;;3.43;1.77;;;6.60;99.90;;;;;;4975932;28;20940;-72
2021/11/17 10:59:57;;;;;;;1.43;1.23;;;6.50;99.90;;;;;;4975737;28;20416;-72
2021/11/17 11:02:25;;;;;;;1.20;1.10;;;6.50;99.90;;;;;;4975332;28;20442;-72
2021/11/17 11:05:11;;;;;;;5.30;1.70;;;6.40;99.90;;;;;;4975364;28;20451;-72
2021/11/17 11:07:45;;;;;;;2.30;1.70;;;6.50;99.90;;;;;;4975300;28;20408;-72
2021/11/17 11:10:42;;;;;;;1.97;1.20;;;6.50;99.90;;;;;;4977845;28;20401;-70
2021/11/17 11:13:14;;;;;;;4.23;1.17;;;6.50;99.90;;;;;;4959564;28;20430;-71
2021/11/17 11:15:44;;;;;;;1.43;1.33;;;6.50;99.90;;;;;;4972264;28;20433;-72
2021/11/17 11:18:09;;;;;;;1.10;1.00;;;6.50;99.90;;;;;;4976118;28;20448;-72
2021/11/17 11:20:43;;;;;;;1.80;1.27;;;6.40;99.90;;;;;;4975617;28;20412;-71
2021/11/17 11:23:24;;;;;;;3.47;1.10;;;6.40;99.90;;;;;;4974234;28;20187;-71
2021/11/17 11:25:59;;;;;;;3.23;1.30;;;6.50;99.90;;;;;;4978982;28;20425;-72
2021/11/17 11:28:30;;;;;;;1.30;1.20;;;6.50;99.90;;;;;;4976310;28;20426;-71
2021/11/17 11:31:01;;;;;;;1.30;1.20;;;6.50;99.90;;;;;;4967353;28;20445;-71
2021/11/17 11:33:48;;;;;;;2.10;1.33;;;6.50;99.90;;;;;;4975008;28;20476;-71
2021/11/17 11:36:28;;;;;;;2.00;1.50;;;6.50;99.90;;;;;;4971410;28;20918;-71
2021/11/17 11:38:57;;;;;;;1.60;1.30;;;6.30;99.90;;;;;;4967164;28;20773;-70
2021/11/17 11:41:28;;;;;;;2.37;1.53;;;6.40;99.90;;;;;;4974978;28;20437;-71
2021/11/17 11:44:16;;;;;;;1.80;1.47;;;6.40;99.90;;;;;;4981517;28;20417;-71
2021/11/17 11:46:46;;;;;;;1.30;1.20;;;6.40;99.90;;;;;;4973313;28;20409;-72
2021/11/17 11:49:31;;;;;;;4.40;1.10;;;6.40;99.90;;;;;;4974145;28;20393;-72
2021/11/17 11:52:19;;;;;;;1.50;1.40;;;6.40;99.90;;;;;;4975689;28;20867;-71
2021/11/17 11:54:54;;;;;;;1.60;1.50;;;6.50;99.90;;;;;;4954892;28;20430;-72
2021/11/17 11:57:30;;;;;;;1.57;1.10;;;6.50;99.90;;;;;;4961909;28;20412;-72
2021/11/17 12:00:20;;;;;;;1.17;1.10;;;6.50;99.90;;;;;;4955059;28;20826;-71
2021/11/17 12:02:56;;;;;;;4.70;1.10;;;6.40;99.90;;;;;;4954707;28;20435;-73
2021/11/17 12:05:44;;;;;;;1.83;1.30;;;6.50;99.90;;;;;;4954347;28;20382;-73
2021/11/17 12:08:24;;;;;;;3.13;1.90;;;6.60;99.90;;;;;;4954061;29;20406;-73
2021/11/17 12:10:59;;;;;;;5.10;2.63;;;6.50;99.90;;;;;;4954562;28;20517;-72
2021/11/17 12:13:29;;;;;;;1.30;1.13;;;6.50;99.90;;;;;;4954472;29;20390;-73
2021/11/17 12:16:09;;;;;;;4.20;1.93;;;6.50;99.90;;;;;;4954460;29;20412;-73
2021/11/17 12:18:47;;;;;;;2.67;1.63;;;6.50;99.90;;;;;;4954716;29;20777;-73
2021/11/17 12:21:35;;;;;;;1.90;1.70;;;6.60;99.90;;;;;;4954503;28;20445;-73
2021/11/17 12:24:24;;;;;;;1.37;1.00;;;6.50;99.90;;;;;;4953517;28;20921;-72
2021/11/17 12:27:12;;;;;;;3.33;2.60;;;6.60;99.90;;;;;;4954969;29;20405;-72
2021/11/17 12:29:46;;;;;;;1.77;1.53;;;6.50;99.90;;;;;;4954827;29;20416;-72
2021/11/17 12:32:29;;;;;;;3.33;2.73;;;6.60;99.90;;;;;;4954374;28;20468;-72
2021/11/17 12:35:06;;;;;;;1.50;1.40;;;6.40;99.90;;;;;;4954498;28;20423;-72
2021/11/17 12:37:57;;;;;;;2.80;1.20;;;6.40;99.90;;;;;;4954811;29;20405;-72
2021/11/17 12:40:51;;;;;;;1.60;1.50;;;6.40;99.90;;;;;;4954629;28;20403;-72
2021/11/17 12:44:01;;;;;;;2.40;1.40;;;6.30;99.90;;;;;;4954179;28;20969;-72
2021/11/17 12:46:50;;;;;;;1.60;1.50;;;6.40;99.90;;;;;;4953287;29;20436;-72
2021/11/17 12:49:36;;;;;;;1.40;1.23;;;6.40;99.90;;;;;;4954547;28;20408;-74
2021/11/17 12:52:11;;;;;;;1.27;1.13;;;6.40;99.90;;;;;;4954364;28;20459;-74
2021/11/17 12:54:46;;;;;;;3.00;1.00;;;6.50;99.90;;;;;;4953084;29;20434;-74
2021/11/17 12:57:17;;;;;;;1.77;1.27;;;6.50;99.90;;;;;;4954377;28;20502;-73
2021/11/17 12:59:47;;;;;;;1.43;1.33;;;6.50;99.90;;;;;;4954467;29;20426;-74
2021/11/17 13:02:21;;;;;;;1.20;1.10;;;6.50;99.90;;;;;;4954467;28;20442;-73
2021/11/17 13:04:50;;;;;;;1.30;1.20;;;6.50;99.90;;;;;;4954196;28;20449;-72
2021/11/17 13:07:34;;;;;;;0.97;0.97;;;6.60;99.90;;;;;;4954523;28;20416;-72
2021/11/17 13:10:00;;;;;;;1.30;1.20;;;6.60;99.90;;;;;;4954432;29;20473;-73
2021/11/17 13:12:28;;;;;;;0.90;0.80;;;6.50;99.90;;;;;;4954363;28;20440;-73
2021/11/17 13:15:03;;;;;;;0.83;0.83;;;6.50;99.90;;;;;;4954729;29;20914;-73
2021/11/17 13:17:44;;;;;;;1.40;1.30;;;6.50;99.90;;;;;;4958309;28;20423;-73
2021/11/17 13:20:12;;;;;;;1.40;1.30;;;6.50;99.90;;;;;;4958294;29;20435;-73
2021/11/17 13:22:41;;;;;;;2.13;1.00;;;6.50;99.90;;;;;;4958586;28;20419;-73
2021/11/17 13:25:21;;;;;;;2.20;1.37;;;6.50;99.90;;;;;;4958076;28;20430;-73
2021/11/17 13:27:48;;;;;;;1.13;1.03;;;6.50;99.90;;;;;;4958736;28;20749;-71
2021/11/17 13:30:16;;;;;;;1.90;1.80;;;6.50;99.90;;;;;;4958228;28;20478;-72
2021/11/17 13:32:45;;;;;;;2.07;1.87;;;6.50;99.90;;;;;;4957565;28;20888;-73
2021/11/17 13:35:25;;;;;;;1.87;1.73;;;6.50;99.90;;;;;;4957367;28;20394;-72
2021/11/17 13:38:08;;;;;;;2.13;1.67;;;6.50;99.90;;;;;;4957447;28;20414;-73
2021/11/17 13:40:33;;;;;;;2.07;1.87;;;6.40;99.90;;;;;;4957550;28;20419;-72
2021/11/17 13:42:59;;;;;;;2.90;2.70;;;6.50;99.90;;;;;;4957455;28;20420;-73
2021/11/17 13:45:29;;;;;;;2.53;2.27;;;6.50;99.90;;;;;;4957394;28;20287;-72
2021/11/17 13:47:56;;;;;;;1.63;1.53;;;6.50;99.90;;;;;;4965521;28;20184;-72
2021/11/17 13:50:25;;;;;;;3.53;2.97;;;6.40;99.90;;;;;;4962822;28;20463;-73
2021/11/17 13:52:51;;;;;;;2.63;2.43;;;6.50;99.90;;;;;;4956492;28;20470;-72
2021/11/17 13:55:23;;;;;;;1.80;1.70;;;6.40;99.90;;;;;;4960420;28;20431;-71
2021/11/17 13:57:50;;;;;;;1.80;1.67;;;6.40;99.90;;;;;;4962739;28;20839;-73
2021/11/17 14:00:18;;;;;;;1.63;1.53;;;6.50;99.90;;;;;;4971289;28;20792;-73
2021/11/17 14:02:46;;;;;;;8.13;1.40;;;6.50;99.90;;;;;;4959207;28;20472;-70
2021/11/17 14:05:12;;;;;;;1.97;1.87;;;6.40;99.90;;;;;;4956976;28;20493;-72
2021/11/17 14:07:38;;;;;;;2.77;1.90;;;6.30;99.90;;;;;;4955642;28;20459;-73
2021/11/17 14:10:06;;;;;;;1.97;1.83;;;6.40;99.90;;;;;;4956654;28;20418;-73
2021/11/17 14:12:31;;;;;;;2.03;1.80;;;6.40;99.90;;;;;;4956984;28;20302;-73
2021/11/17 14:14:57;;;;;;;1.90;1.70;;;6.40;99.90;;;;;;4956351;28;20485;-73
2021/11/17 14:17:23;;;;;;;2.37;2.20;;;6.50;99.90;;;;;;4956604;28;20208;-72
2021/11/17 14:19:50;;;;;;;2.60;2.10;;;6.50;99.90;;;;;;4957001;28;20259;-73
2021/11/17 14:22:15;;;;;;;2.30;1.80;;;6.50;99.90;;;;;;4956615;28;20221;-72
2021/11/17 14:24:41;;;;;;;2.60;2.40;;;6.50;99.90;;;;;;4969816;28;20482;-72
2021/11/17 14:27:10;;;;;;;2.70;2.50;;;6.40;99.90;;;;;;4965849;28;20184;-72
2021/11/17 14:29:47;;;;;;;2.23;2.03;;;6.40;99.90;;;;;;4964882;28;20183;-70
2021/11/17 14:32:16;;;;;;;2.30;2.20;;;6.50;99.90;;;;;;4960757;28;20455;-72
2021/11/17 14:34:42;;;;;;;3.17;2.30;;;6.40;99.90;;;;;;4964589;28;20421;-73
2021/11/17 14:37:09;;;;;;;5.13;2.50;;;6.40;99.90;;;;;;4966233;28;20404;-72
2021/11/17 14:39:38;;;;;;;8.03;2.80;;;6.50;99.90;;;;;;4961676;28;20837;-72
2021/11/17 14:42:05;;;;;;;3.50;2.37;;;6.50;99.90;;;;;;4965473;28;20442;-73
2021/11/17 14:44:31;;;;;;;2.93;1.90;;;6.70;99.90;;;;;;4964476;28;20558;-73
2021/11/17 14:46:57;;;;;;;3.40;2.00;;;6.70;99.90;;;;;;4971278;28;20510;-72
2021/11/17 14:49:23;;;;;;;2.30;2.03;;;6.70;99.90;;;;;;4967834;28;20766;-73
2021/11/17 14:51:49;;;;;;;2.80;1.93;;;6.70;99.90;;;;;;4968253;28;20540;-72
2021/11/17 14:54:15;;;;;;;2.27;2.00;;;6.70;99.90;;;;;;4963124;28;20189;-70
2021/11/17 14:56:41;;;;;;;4.30;2.00;;;6.60;99.90;;;;;;4956089;28;20415;-72
2021/11/17 14:59:07;;;;;;;2.00;1.43;;;6.60;99.90;;;;;;4956736;28;20409;-72
2021/11/17 15:01:39;;;;;;;2.70;2.30;;;6.50;99.90;;;;;;4974713;28;20780;-71
2021/11/17 15:04:05;;;;;;;3.10;2.43;;;6.50;99.90;;;;;;4974546;28;20198;-72
2021/11/17 15:06:35;;;;;;;2.33;1.83;;;6.40;99.90;;;;;;4964629;28;20438;-72
2021/11/17 15:09:02;;;;;;;1.90;1.80;;;6.40;99.90;;;;;;4963058;28;20417;-72
2021/11/17 15:11:28;;;;;;;2.13;1.97;;;6.40;99.90;;;;;;4962947;28;20463;-72
2021/11/17 15:13:54;;;;;;;2.60;2.40;;;6.40;99.90;;;;;;4970929;28;20430;-72
2021/11/17 15:16:21;;;;;;;2.43;1.80;;;6.40;99.90;;;;;;4974415;28;20409;-72
2021/11/17 15:18:48;;;;;;;3.90;2.85;;;6.40;99.90;;;;;;4973920;28;20465;-71
2021/11/17 15:21:17;;;;;;;4.07;2.33;;;6.30;99.90;;;;;;4975072;28;20246;-72
2021/11/17 15:23:45;;;;;;;5.10;3.23;;;6.40;99.90;;;;;;4975593;28;20494;-72
2021/11/17 15:26:12;;;;;;;2.57;2.37;;;6.40;99.90;;;;;;4974945;28;20752;-73
2021/11/17 15:28:44;;;;;;;4.37;3.60;;;6.50;99.90;;;;;;4975365;28;20432;-72
2021/11/17 15:31:14;;;;;;;3.53;3.10;;;6.50;99.90;;;;;;4974831;28;20512;-72
2021/11/17 15:33:40;;;;;;;2.23;2.00;;;6.50;99.90;;;;;;4974830;28;20822;-74
2021/11/17 15:36:08;;;;;;;3.30;3.00;;;6.50;99.90;;;;;;4976457;28;20398;-72
2021/11/17 15:38:38;;;;;;;4.83;2.90;;;6.50;99.90;;;;;;4971407;28;20964;-72
2021/11/17 15:41:07;;;;;;;3.20;3.00;;;6.50;99.90;;;;;;4968546;28;20451;-73
2021/11/17 15:43:33;;;;;;;3.27;2.70;;;6.50;99.90;;;;;;4968702;28;20419;-72
2021/11/17 15:45:59;;;;;;;3.23;2.93;;;6.40;99.90;;;;;;4967109;28;20500;-72
2021/11/17 15:48:26;;;;;;;7.13;2.80;;;6.40;99.90;;;;;;4974680;28;20411;-72
2021/11/17 15:50:59;;;;;;;5.60;2.50;;;6.50;99.90;;;;;;4965906;28;20963;-72
2021/11/17 15:53:24;;;;;;;3.17;2.87;;;6.50;99.90;;;;;;4963587;28;20506;-73
2021/11/17 15:55:52;;;;;;;4.00;3.50;;;6.40;99.90;;;;;;4974762;28;20558;-73
2021/11/17 15:58:18;;;;;;;4.43;3.87;;;6.40;99.90;;;;;;4961058;28;20654;-74
2021/11/17 16:00:45;;;;;;;3.87;3.37;;;6.50;99.90;;;;;;4958510;28;20420;-72
2021/11/17 16:03:13;;;;;;;3.73;3.10;;;6.40;99.90;;;;;;4954122;28;20428;-74
2021/11/17 16:05:39;;;;;;;9.33;4.47;;;6.40;99.90;;;;;;4953905;29;20568;-74
2021/11/17 16:08:05;;;;;;;5.60;4.27;;;6.40;99.90;;;;;;4953821;28;20500;-74
2021/11/17 16:10:31;;;;;;;5.10;3.90;;;6.40;99.90;;;;;;4953966;29;20185;-74
2021/11/17 16:12:57;;;;;;;7.70;3.80;;;6.40;99.90;;;;;;4953376;29;20295;-74
2021/11/17 16:15:23;;;;;;;7.43;3.50;;;6.30;99.90;;;;;;4953656;29;21436;-74
2021/11/17 16:17:49;;;;;;;6.17;3.33;;;6.40;99.90;;;;;;4968465;28;20419;-74
2021/11/17 16:20:18;;;;;;;3.80;2.90;;;6.40;99.90;;;;;;4972742;28;20632;-74
2021/11/17 16:23:03;;;;;;;4.37;4.00;;;6.30;99.90;;;;;;4973715;28;20473;-74
2021/11/17 16:25:34;;;;;;;5.20;3.50;;;6.30;99.90;;;;;;4968020;28;20803;-74
2021/11/17 16:28:12;;;;;;;4.80;3.40;;;6.30;99.90;;;;;;4966287;28;20525;-74
2021/11/17 16:30:39;;;;;;;4.87;3.73;;;6.30;99.90;;;;;;4967356;28;20403;-74
2021/11/17 16:33:05;;;;;;;3.37;3.07;;;6.30;99.90;;;;;;4968845;28;20442;-74
2021/11/17 16:35:31;;;;;;;4.27;3.40;;;6.30;99.90;;;;;;4966872;28;21169;-74
2021/11/17 16:37:57;;;;;;;5.90;3.77;;;6.30;99.90;;;;;;4953415;28;20456;-73
2021/11/17 16:40:28;;;;;;;7.53;3.90;;;6.30;99.90;;;;;;4953217;28;20790;-74
2021/11/17 16:42:53;;;;;;;5.20;3.70;;;6.30;99.90;;;;;;4953121;28;20192;-74
2021/11/17 16:45:21;;;;;;;5.40;3.93;;;6.30;99.90;;;;;;4953247;28;20470;-74
2021/11/17 16:47:47;;;;;;;5.80;4.83;;;6.30;99.90;;;;;;4963367;28;20186;-72
2021/11/17 16:50:14;;;;;;;5.90;4.07;;;6.30;99.90;;;;;;4968583;28;20916;-74
2021/11/17 16:52:44;;;;;;;10.50;3.60;;;6.30;99.90;;;;;;4970343;28;20523;-73
2021/11/17 16:55:13;;;;;;;4.87;4.37;;;6.30;99.90;;;;;;4969959;28;20470;-74
2021/11/17 16:57:41;;;;;;;4.83;4.30;;;6.30;99.90;;;;;;4972317;28;20450;-74
2021/11/17 17:00:10;;;;;;;4.80;4.07;;;6.30;99.90;;;;;;4972263;28;20517;-74
2021/11/17 17:02:36;;;;;;;5.30;4.00;;;6.30;99.90;;;;;;4972203;28;20411;-74
2021/11/17 17:05:02;;;;;;;7.00;4.87;;;6.30;99.90;;;;;;4969124;28;20486;-74
2021/11/17 17:07:28;;;;;;;5.00;3.57;;;6.30;99.90;;;;;;4972220;28;20216;-74
2021/11/17 17:09:54;;;;;;;5.37;4.00;;;6.30;99.90;;;;;;4971995;28;20864;-74
2021/11/17 17:12:28;;;;;;;5.67;3.20;;;6.30;99.90;;;;;;4971692;28;20266;-75
2021/11/17 17:14:56;;;;;;;4.90;3.47;;;6.30;99.90;;;;;;4972257;28;20789;-75
2021/11/17 17:17:24;;;;;;;6.93;3.47;;;6.30;99.90;;;;;;4972099;28;20809;-74
2021/11/17 17:19:50;;;;;;;6.13;3.70;;;6.30;99.90;;;;;;4972147;28;20929;-75
2021/11/17 17:22:18;;;;;;;6.70;3.60;;;6.20;99.90;;;;;;4977169;28;20505;-74
2021/11/17 17:24:44;;;;;;;4.73;3.73;;;6.30;99.90;;;;;;4971977;28;20395;-74
2021/11/17 17:27:10;;;;;;;5.23;3.87;;;6.30;99.90;;;;;;4971564;28;20439;-74
2021/11/17 17:29:36;;;;;;;4.80;3.63;;;6.30;99.90;;;;;;4984909;28;20193;-74
2021/11/17 17:32:04;;;;;;;3.13;2.83;;;6.30;99.90;;;;;;4990766;28;20474;-74
2021/11/17 17:34:31;;;;;;;6.73;3.50;;;6.30;99.90;;;;;;4973729;28;20485;-74
2021/11/17 17:37:01;;;;;;;6.57;3.70;;;6.30;99.90;;;;;;4970506;28;21014;-74
2021/11/17 17:39:33;;;;;;;4.90;3.40;;;6.30;99.90;;;;;;4971612;28;20415;-74
2021/11/17 17:42:09;;;;;;;4.70;3.37;;;6.30;99.90;;;;;;4971777;28;20435;-74
2021/11/17 17:44:38;;;;;;;7.20;3.80;;;6.30;99.90;;;;;;4969912;28;20408;-74
2021/11/17 17:47:04;;;;;;;4.47;3.50;;;6.30;99.90;;;;;;4971542;28;20422;-74
2021/11/17 17:49:30;;;;;;;6.80;4.70;;;6.30;99.90;;;;;;4971631;28;20465;-75
2021/11/17 17:51:55;;;;;;;5.77;4.30;;;6.40;99.90;;;;;;4969792;28;20499;-74
2021/11/17 17:54:22;;;;;;;9.10;5.13;;;6.30;99.90;;;;;;4971116;28;20276;-74
2021/11/17 17:56:48;;;;;;;4.50;4.00;;;6.40;99.90;;;;;;4968555;28;20263;-74
2021/11/17 17:59:18;;;;;;;5.60;4.30;;;6.40;99.90;;;;;;4969104;28;20482;-74
2021/11/17 18:01:45;;;;;;;6.03;5.13;;;6.40;99.90;;;;;;4969624;28;20494;-73
2021/11/17 18:04:11;;;;;;;7.53;4.10;;;6.30;99.90;;;;;;4974506;28;20450;-75
2021/11/17 18:06:36;;;;;;;4.03;3.63;;;6.30;99.90;;;;;;4983996;28;21179;-74
2021/11/17 18:09:03;;;;;;;4.70;3.60;;;6.40;99.90;;;;;;4962695;28;20211;-73
2021/11/17 18:11:30;;;;;;;4.27;3.83;;;6.40;99.90;;;;;;4974664;28;20231;-74
2021/11/17 18:13:55;;;;;;;5.20;3.73;;;6.40;99.90;;;;;;4972687;28;20956;-73
2021/11/17 18:16:21;;;;;;;6.53;3.53;;;6.40;99.90;;;;;;4972603;28;20466;-75
2021/11/17 18:18:47;;;;;;;5.43;3.60;;;6.40;99.90;;;;;;4972899;28;20688;-74
2021/11/17 18:21:17;;;;;;;5.43;3.60;;;6.40;99.90;;;;;;4972604;28;20601;-74
2021/11/17 18:23:43;;;;;;;3.43;3.10;;;6.40;99.90;;;;;;4974481;28;20294;-74
2021/11/17 18:26:27;;;;;;;4.67;3.80;;;6.40;99.90;;;;;;4974032;28;20450;-74
2021/11/17 18:28:53;;;;;;;4.10;3.70;;;6.40;99.90;;;;;;4972651;28;21003;-74
2021/11/17 18:31:20;;;;;;;4.73;3.80;;;6.40;99.90;;;;;;4970784;28;20477;-74
2021/11/17 18:33:46;;;;;;;3.47;3.17;;;6.40;99.90;;;;;;4971374;28;20494;-73
2021/11/17 18:36:12;;;;;;;4.63;3.60;;;6.30;99.90;;;;;;4972376;28;20438;-73
2021/11/17 18:38:38;;;;;;;4.10;3.73;;;6.40;99.90;;;;;;4974316;28;20578;-74
2021/11/17 18:41:09;;;;;;;5.20;3.83;;;6.40;99.90;;;;;;4973578;28;20455;-74
2021/11/17 18:43:35;;;;;;;4.77;3.83;;;6.30;99.90;;;;;;4971419;28;20868;-74
2021/11/17 18:46:03;;;;;;;4.73;3.40;;;6.30;99.90;;;;;;4974436;28;20465;-73
2021/11/17 18:48:29;;;;;;;10.07;3.90;;;6.30;99.90;;;;;;4974458;28;20522;-75